sensor_id;sensor_type;location;lat;lon;timestamp;pressure;altitude;pressure_sealevel;temperature;humidity
56671;BME280;42545;50.054;8.306;2023-08-21T00:02:23;100456.44;;;21.67;92.40
56671;BME280;42545;50.054;8.306;2023-08-21T00:04:53;100454.72;;;21.65;92.85
56671;BME280;42545;50.054;8.306;2023-08-21T00:07:19;100460.16;;;21.62;92.68
56671;BME280;42545;50.054;8.306;2023-08-21T00:09:46;100456.63;;;21.60;92.72
56671;BME280;42545;50.054;8.306;2023-08-21T00:12:13;100460.25;;;21.57;93.24
56671;BME280;42545;50.054;8.306;2023-08-21T00:14:39;100462.06;;;21.57;93.23
56671;BME280;42545;50.054;8.306;2023-08-21T00:17:06;100448.66;;;21.55;93.84
56671;BME280;42545;50.054;8.306;2023-08-21T00:19:34;100462.13;;;21.54;93.47
56671;BME280;42545;50.054;8.306;2023-08-21T00:22:01;100463.06;;;21.51;94.05
56671;BME280;42545;50.054;8.306;2023-08-21T00:24:27;100458.63;;;21.50;94.10
56671;BME280;42545;50.054;8.306;2023-08-21T00:26:54;100455.03;;;21.51;93.74
56671;BME280;42545;50.054;8.306;2023-08-21T00:29:21;100450.63;;;21.48;93.80
56671;BME280;42545;50.054;8.306;2023-08-21T00:31:47;100456.03;;;21.45;94.17
56671;BME280;42545;50.054;8.306;2023-08-21T00:34:14;100453.34;;;21.44;94.44
56671;BME280;42545;50.054;8.306;2023-08-21T00:36:42;100455.16;;;21.43;94.76
56671;BME280;42545;50.054;8.306;2023-08-21T00:39:09;100455.25;;;21.39;94.80
56671;BME280;42545;50.054;8.306;2023-08-21T00:41:35;100445.50;;;21.35;94.63
56671;BME280;42545;50.054;8.306;2023-08-21T00:44:03;100450.81;;;21.38;95.16
56671;BME280;42545;50.054;8.306;2023-08-21T00:46:30;100457.13;;;21.35;95.41
56671;BME280;42545;50.054;8.306;2023-08-21T00:48:57;100449.19;;;21.30;95.61
56671;BME280;42545;50.054;8.306;2023-08-21T00:51:24;100444.78;;;21.26;95.85
56671;BME280;42545;50.054;8.306;2023-08-21T00:53:52;100441.28;;;21.23;96.38
56671;BME280;42545;50.054;8.306;2023-08-21T00:56:19;100444.06;;;21.18;96.50
56671;BME280;42545;50.054;8.306;2023-08-21T00:58:46;100445.09;;;21.12;96.78
56671;BME280;42545;50.054;8.306;2023-08-21T01:01:15;100447.81;;;21.09;97.41
56671;BME280;42545;50.054;8.306;2023-08-21T01:03:44;100438.94;;;21.06;97.45
56671;BME280;42545;50.054;8.306;2023-08-21T01:06:11;100433.78;;;20.97;97.54
56671;BME280;42545;50.054;8.306;2023-08-21T01:08:43;100447.22;;;20.95;98.25
56671;BME280;42545;50.054;8.306;2023-08-21T01:11:17;100449.03;;;20.93;98.57
56671;BME280;42545;50.054;8.306;2023-08-21T01:13:53;100448.22;;;20.89;99.04
56671;BME280;42545;50.054;8.306;2023-08-21T01:16:22;100453.69;;;20.85;99.31
56671;BME280;42545;50.054;8.306;2023-08-21T01:18:52;100455.53;;;20.83;99.22
56671;BME280;42545;50.054;8.306;2023-08-21T01:21:19;100459.13;;;20.80;99.41
56671;BME280;42545;50.054;8.306;2023-08-21T01:23:47;100455.75;;;20.70;99.54
56671;BME280;42545;50.054;8.306;2023-08-21T01:26:14;100462.94;;;20.70;99.96
56671;BME280;42545;50.054;8.306;2023-08-21T01:28:41;100462.94;;;20.68;100.00
56671;BME280;42545;50.054;8.306;2023-08-21T01:31:11;100471.06;;;20.64;100.00
56671;BME280;42545;50.054;8.306;2023-08-21T01:33:43;100471.13;;;20.59;100.00
56671;BME280;42545;50.054;8.306;2023-08-21T01:36:11;100469.47;;;20.52;100.00
56671;BME280;42545;50.054;8.306;2023-08-21T01:38:38;100470.38;;;20.49;100.00
56671;BME280;42545;50.054;8.306;2023-08-21T01:41:06;100478.47;;;20.48;100.00
56671;BME280;42545;50.054;8.306;2023-08-21T01:43:33;100476.69;;;20.47;100.00
56671;BME280;42545;50.054;8.306;2023-08-21T01:46:01;100482.94;;;20.47;100.00
56671;BME280;42545;50.054;8.306;2023-08-21T01:48:28;100476.69;;;20.47;100.00
56671;BME280;42545;50.054;8.306;2023-08-21T01:50:54;100477.56;;;20.47;100.00
56671;BME280;42545;50.054;8.306;2023-08-21T01:53:21;100478.53;;;20.45;100.00
56671;BME280;42545;50.054;8.306;2023-08-21T01:55:48;100476.75;;;20.44;100.00
56671;BME280;42545;50.054;8.306;2023-08-21T01:58:16;100483.03;;;20.43;100.00
56671;BME280;42545;50.054;8.306;2023-08-21T02:00:45;100481.25;;;20.42;100.00
56671;BME280;42545;50.054;8.306;2023-08-21T02:03:12;100479.47;;;20.41;100.00
56671;BME280;42545;50.054;8.306;2023-08-21T02:05:39;100480.38;;;20.41;100.00
56671;BME280;42545;50.054;8.306;2023-08-21T02:08:06;100465.28;;;20.37;100.00
56671;BME280;42545;50.054;8.306;2023-08-21T02:10:33;100478.56;;;20.42;100.00
56671;BME280;42545;50.054;8.306;2023-08-21T02:12:59;100472.31;;;20.43;100.00
56671;BME280;42545;50.054;8.306;2023-08-21T02:15:28;100471.38;;;20.44;100.00
56671;BME280;42545;50.054;8.306;2023-08-21T02:17:54;100475.00;;;20.43;100.00
56671;BME280;42545;50.054;8.306;2023-08-21T02:20:21;100471.38;;;20.44;100.00
56671;BME280;42545;50.054;8.306;2023-08-21T02:22:48;100469.63;;;20.43;100.00
56671;BME280;42545;50.054;8.306;2023-08-21T02:25:15;100471.41;;;20.42;100.00
56671;BME280;42545;50.054;8.306;2023-08-21T02:27:41;100468.75;;;20.41;100.00
56671;BME280;42545;50.054;8.306;2023-08-21T02:30:09;100465.28;;;20.35;100.00
56671;BME280;42545;50.054;8.306;2023-08-21T02:32:37;100478.69;;;20.35;100.00
56671;BME280;42545;50.054;8.306;2023-08-21T02:35:06;100473.38;;;20.32;100.00
56671;BME280;42545;50.054;8.306;2023-08-21T02:37:32;100473.38;;;20.32;100.00
56671;BME280;42545;50.054;8.306;2023-08-21T02:39:59;100476.06;;;20.31;100.00
56671;BME280;42545;50.054;8.306;2023-08-21T02:42:26;100471.66;;;20.30;100.00
56671;BME280;42545;50.054;8.306;2023-08-21T02:44:52;100471.66;;;20.28;100.00
56671;BME280;42545;50.054;8.306;2023-08-21T02:47:19;100471.69;;;20.27;100.00
56671;BME280;42545;50.054;8.306;2023-08-21T02:49:47;100469.88;;;20.27;100.00
56671;BME280;42545;50.054;8.306;2023-08-21T02:52:14;100474.41;;;20.24;100.00
56671;BME280;42545;50.054;8.306;2023-08-21T02:54:41;100482.44;;;20.24;100.00
56671;BME280;42545;50.054;8.306;2023-08-21T02:57:08;100470.91;;;20.19;100.00
56671;BME280;42545;50.054;8.306;2023-08-21T02:59:34;100471.84;;;20.17;100.00
56671;BME280;42545;50.054;8.306;2023-08-21T03:02:01;100470.97;;;20.15;100.00
56671;BME280;42545;50.054;8.306;2023-08-21T03:04:28;100472.81;;;20.13;100.00
56671;BME280;42545;50.054;8.306;2023-08-21T03:06:56;100479.97;;;20.11;100.00
56671;BME280;42545;50.054;8.306;2023-08-21T03:09:22;100472.88;;;20.09;100.00
56671;BME280;42545;50.054;8.306;2023-08-21T03:11:49;100469.34;;;20.05;100.00
56671;BME280;42545;50.054;8.306;2023-08-21T03:14:16;100472.91;;;20.06;100.00
56671;BME280;42545;50.054;8.306;2023-08-21T03:16:42;100471.19;;;20.02;100.00
56671;BME280;42545;50.054;8.306;2023-08-21T03:19:09;100473.00;;;20.01;100.00
56671;BME280;42545;50.054;8.306;2023-08-21T03:21:36;100475.72;;;19.98;100.00
56671;BME280;42545;50.054;8.306;2023-08-21T03:24:06;100473.06;;;19.96;100.00
56671;BME280;42545;50.054;8.306;2023-08-21T03:26:32;100487.41;;;19.94;100.00
56671;BME280;42545;50.054;8.306;2023-08-21T03:28:59;100483.00;;;19.90;100.00
56671;BME280;42545;50.054;8.306;2023-08-21T03:31:26;100485.72;;;19.87;100.00
56671;BME280;42545;50.054;8.306;2023-08-21T03:33:52;100478.63;;;19.84;100.00
56671;BME280;42545;50.054;8.306;2023-08-21T03:36:20;100471.50;;;19.82;100.00
56671;BME280;42545;50.054;8.306;2023-08-21T03:38:46;100479.56;;;19.80;100.00
56671;BME280;42545;50.054;8.306;2023-08-21T03:41:15;100473.34;;;19.78;100.00
56671;BME280;42545;50.054;8.306;2023-08-21T03:43:41;100474.28;;;19.75;100.00
56671;BME280;42545;50.054;8.306;2023-08-21T03:46:08;100468.94;;;19.72;100.00
56671;BME280;42545;50.054;8.306;2023-08-21T03:48:34;100471.63;;;19.71;100.00
56671;BME280;42545;50.054;8.306;2023-08-21T03:51:01;100477.00;;;19.69;100.00
56671;BME280;42545;50.054;8.306;2023-08-21T03:53:28;100481.47;;;19.69;100.00
56671;BME280;42545;50.054;8.306;2023-08-21T03:55:55;100469.03;;;19.65;100.00
56671;BME280;42545;50.054;8.306;2023-08-21T03:58:22;100471.75;;;19.62;100.00
56671;BME280;42545;50.054;8.306;2023-08-21T04:00:50;100483.44;;;19.56;100.00
56671;BME280;42545;50.054;8.306;2023-08-21T04:03:17;100473.66;;;19.53;100.00
56671;BME280;42545;50.054;8.306;2023-08-21T04:05:43;100476.34;;;19.53;100.00
56671;BME280;42545;50.054;8.306;2023-08-21T04:08:10;100483.53;;;19.50;100.00
56671;BME280;42545;50.054;8.306;2023-08-21T04:10:37;100486.22;;;19.50;100.00
56671;BME280;42545;50.054;8.306;2023-08-21T04:13:04;100489.75;;;19.50;100.00
56671;BME280;42545;50.054;8.306;2023-08-21T04:15:33;100480.03;;;19.45;100.00
56671;BME280;42545;50.054;8.306;2023-08-21T04:18:00;100494.25;;;19.48;100.00
56671;BME280;42545;50.054;8.306;2023-08-21T04:20:27;100484.44;;;19.47;100.00
56671;BME280;42545;50.054;8.306;2023-08-21T04:22:53;100493.38;;;19.48;100.00
56671;BME280;42545;50.054;8.306;2023-08-21T04:25:20;100485.38;;;19.46;100.00
56671;BME280;42545;50.054;8.306;2023-08-21T04:27:46;100493.38;;;19.48;100.00
56671;BME280;42545;50.054;8.306;2023-08-21T04:30:14;100492.44;;;19.49;100.00
56671;BME280;42545;50.054;8.306;2023-08-21T04:32:42;100486.22;;;19.50;100.00
56671;BME280;42545;50.054;8.306;2023-08-21T04:35:08;100489.75;;;19.52;100.00
56671;BME280;42545;50.054;8.306;2023-08-21T04:37:38;100493.31;;;19.52;100.00
56671;BME280;42545;50.054;8.306;2023-08-21T04:40:10;100488.88;;;19.50;100.00
56671;BME280;42545;50.054;8.306;2023-08-21T04:42:37;100487.06;;;19.53;100.00
56671;BME280;42545;50.054;8.306;2023-08-21T04:45:05;100497.69;;;19.58;100.00
56671;BME280;42545;50.054;8.306;2023-08-21T04:47:31;100494.16;;;19.56;100.00
56671;BME280;42545;50.054;8.306;2023-08-21T04:50:00;100492.34;;;19.56;100.00
56671;BME280;42545;50.054;8.306;2023-08-21T04:52:26;100490.59;;;19.55;100.00
56671;BME280;42545;50.054;8.306;2023-08-21T04:54:54;100499.47;;;19.57;100.00
56671;BME280;42545;50.054;8.306;2023-08-21T04:57:20;100498.56;;;19.58;100.00
56671;BME280;42545;50.054;8.306;2023-08-21T04:59:47;100503.00;;;19.61;100.00
56671;BME280;42545;50.054;8.306;2023-08-21T05:02:14;100502.16;;;19.59;100.00
56671;BME280;42545;50.054;8.306;2023-08-21T05:04:41;100510.09;;;19.64;100.00
56671;BME280;42545;50.054;8.306;2023-08-21T05:07:09;100506.53;;;19.65;100.00
56671;BME280;42545;50.054;8.306;2023-08-21T05:09:36;100505.59;;;19.66;100.00
56671;BME280;42545;50.054;8.306;2023-08-21T05:12:03;100511.78;;;19.71;100.00
56671;BME280;42545;50.054;8.306;2023-08-21T05:14:32;100504.63;;;19.74;100.00
56671;BME280;42545;50.054;8.306;2023-08-21T05:16:58;100517.09;;;19.77;100.00
56671;BME280;42545;50.054;8.306;2023-08-21T05:19:25;100516.13;;;19.83;100.00
56671;BME280;42545;50.054;8.306;2023-08-21T05:21:51;100515.16;;;19.87;100.00
56671;BME280;42545;50.054;8.306;2023-08-21T05:24:19;100523.09;;;19.94;100.00
56671;BME280;42545;50.054;8.306;2023-08-21T05:26:46;100527.44;;;20.02;100.00
56671;BME280;42545;50.054;8.306;2023-08-21T05:29:13;100522.81;;;20.11;100.00
56671;BME280;42545;50.054;8.306;2023-08-21T05:31:39;100527.19;;;20.19;100.00
56671;BME280;42545;50.054;8.306;2023-08-21T05:34:06;100523.50;;;20.26;100.00
56671;BME280;42545;50.054;8.306;2023-08-21T05:36:33;100530.53;;;20.33;100.00
56671;BME280;42545;50.054;8.306;2023-08-21T05:39:02;100532.28;;;20.35;100.00
56671;BME280;42545;50.054;8.306;2023-08-21T05:41:32;100533.97;;;20.43;100.00
56671;BME280;42545;50.054;8.306;2023-08-21T05:43:59;100533.97;;;20.43;100.00
56671;BME280;42545;50.054;8.306;2023-08-21T05:46:25;100539.22;;;20.47;100.00
56671;BME280;42545;50.054;8.306;2023-08-21T05:48:52;100537.41;;;20.49;100.00
56671;BME280;42545;50.054;8.306;2023-08-21T05:51:18;100540.06;;;20.51;100.00
56671;BME280;42545;50.054;8.306;2023-08-21T05:53:45;100538.22;;;20.54;100.00
56671;BME280;42545;50.054;8.306;2023-08-21T05:56:12;100533.66;;;20.60;100.00
56671;BME280;42545;50.054;8.306;2023-08-21T05:58:40;100531.88;;;20.60;100.00
56671;BME280;42545;50.054;8.306;2023-08-21T06:01:07;100538.91;;;20.69;100.00
56671;BME280;42545;50.054;8.306;2023-08-21T06:03:33;100540.59;;;20.74;100.00
56671;BME280;42545;50.054;8.306;2023-08-21T06:06:00;100534.25;;;20.79;100.00
56671;BME280;42545;50.054;8.306;2023-08-21T06:08:27;100537.75;;;20.84;100.00
56671;BME280;42545;50.054;8.306;2023-08-21T06:10:54;100541.19;;;20.92;100.00
56671;BME280;42545;50.054;8.306;2023-08-21T06:13:21;100535.66;;;21.00;100.00
56671;BME280;42545;50.054;8.306;2023-08-21T06:15:50;100545.41;;;21.04;100.00
56671;BME280;42545;50.054;8.306;2023-08-21T06:18:16;100540.91;;;21.06;100.00
56671;BME280;42545;50.054;8.306;2023-08-21T06:20:43;100540.75;;;21.13;100.00
56671;BME280;42545;50.054;8.306;2023-08-21T06:23:10;100537.97;;;21.20;100.00
56671;BME280;42545;50.054;8.306;2023-08-21T06:25:38;100537.84;;;21.26;100.00
56671;BME280;42545;50.054;8.306;2023-08-21T06:28:05;100536.00;;;21.28;100.00
56671;BME280;42545;50.054;8.306;2023-08-21T06:30:32;100540.41;;;21.32;100.00
56671;BME280;42545;50.054;8.306;2023-08-21T06:33:00;100535.91;;;21.33;100.00
56671;BME280;42545;50.054;8.306;2023-08-21T06:35:26;100545.53;;;21.43;100.00
56671;BME280;42545;50.054;8.306;2023-08-21T06:37:53;100548.13;;;21.50;100.00
56671;BME280;42545;50.054;8.306;2023-08-21T06:40:20;100554.22;;;21.57;99.84
56671;BME280;42545;50.054;8.306;2023-08-21T06:42:47;100552.31;;;21.64;99.26
56671;BME280;42545;50.054;8.306;2023-08-21T06:45:16;100555.81;;;21.67;99.21
56671;BME280;42545;50.054;8.306;2023-08-21T06:47:43;100551.28;;;21.69;99.06
56671;BME280;42545;50.054;8.306;2023-08-21T06:50:11;100549.38;;;21.75;98.48
56671;BME280;42545;50.054;8.306;2023-08-21T06:52:39;100544.81;;;21.80;98.80
56671;BME280;42545;50.054;8.306;2023-08-21T06:55:06;100550.00;;;21.87;98.91
56671;BME280;42545;50.054;8.306;2023-08-21T06:57:33;100541.78;;;21.94;98.17
56671;BME280;42545;50.054;8.306;2023-08-21T07:00:00;100553.31;;;21.99;98.01
56671;BME280;42545;50.054;8.306;2023-08-21T07:02:28;100542.41;;;22.05;98.17
56671;BME280;42545;50.054;8.306;2023-08-21T07:04:55;100538.69;;;22.12;98.02
56671;BME280;42545;50.054;8.306;2023-08-21T07:07:23;100535.75;;;22.21;98.49
56671;BME280;42545;50.054;8.306;2023-08-21T07:09:50;100533.84;;;22.28;97.32
56671;BME280;42545;50.054;8.306;2023-08-21T07:12:16;100529.31;;;22.30;97.17
56671;BME280;42545;50.054;8.306;2023-08-21T07:14:43;100532.94;;;22.29;95.66
56671;BME280;42545;50.054;8.306;2023-08-21T07:17:09;100543.44;;;22.40;96.23
56671;BME280;42545;50.054;8.306;2023-08-21T07:19:36;100540.56;;;22.48;95.96
56671;BME280;42545;50.054;8.306;2023-08-21T07:22:03;100545.66;;;22.58;95.99
56671;BME280;42545;50.054;8.306;2023-08-21T07:24:31;100542.63;;;22.71;95.98
56671;BME280;42545;50.054;8.306;2023-08-21T07:26:58;100543.38;;;22.77;95.06
56671;BME280;42545;50.054;8.306;2023-08-21T07:29:24;100543.16;;;22.85;94.48
56671;BME280;42545;50.054;8.306;2023-08-21T07:31:51;100543.84;;;22.93;94.73
56671;BME280;42545;50.054;8.306;2023-08-21T07:34:18;100545.50;;;22.99;93.43
56671;BME280;42545;50.054;8.306;2023-08-21T07:36:44;100539.06;;;23.06;94.78
56671;BME280;42545;50.054;8.306;2023-08-21T07:39:11;100537.78;;;23.19;93.79
56671;BME280;42545;50.054;8.306;2023-08-21T07:41:40;100539.34;;;23.28;93.58
56671;BME280;42545;50.054;8.306;2023-08-21T07:44:06;100535.53;;;23.35;92.62
56671;BME280;42545;50.054;8.306;2023-08-21T07:46:33;100530.88;;;23.42;92.25
56671;BME280;42545;50.054;8.306;2023-08-21T07:49:00;100539.63;;;23.49;92.07
56671;BME280;42545;50.054;8.306;2023-08-21T07:51:27;100536.78;;;23.55;90.66
56671;BME280;42545;50.054;8.306;2023-08-21T07:53:53;100533.06;;;23.59;90.63
56671;BME280;42545;50.054;8.306;2023-08-21T07:56:20;100536.38;;;23.67;89.77
56671;BME280;42545;50.054;8.306;2023-08-21T07:58:48;100544.09;;;23.81;90.27
56671;BME280;42545;50.054;8.306;2023-08-21T08:01:15;100532.25;;;23.87;89.55
56671;BME280;42545;50.054;8.306;2023-08-21T08:03:42;100541.00;;;23.95;89.29
56671;BME280;42545;50.054;8.306;2023-08-21T08:06:09;100538.09;;;24.01;88.91
56671;BME280;42545;50.054;8.306;2023-08-21T08:08:36;100539.59;;;24.11;89.32
56671;BME280;42545;50.054;8.306;2023-08-21T08:11:03;100537.72;;;24.13;87.66
56671;BME280;42545;50.054;8.306;2023-08-21T08:13:31;100545.28;;;24.29;87.67
56671;BME280;42545;50.054;8.306;2023-08-21T08:15:59;100542.47;;;24.33;86.81
56671;BME280;42545;50.054;8.306;2023-08-21T08:18:26;100547.72;;;24.36;86.30
56671;BME280;42545;50.054;8.306;2023-08-21T08:20:53;100543.94;;;24.42;87.80
56671;BME280;42545;50.054;8.306;2023-08-21T08:23:19;100540.06;;;24.52;86.93
56671;BME280;42545;50.054;8.306;2023-08-21T08:25:48;100545.22;;;24.59;86.60
56671;BME280;42545;50.054;8.306;2023-08-21T08:28:15;100549.56;;;24.64;85.12
56671;BME280;42545;50.054;8.306;2023-08-21T08:30:42;100552.03;;;24.70;84.94
56671;BME280;42545;50.054;8.306;2023-08-21T08:33:12;100552.78;;;24.75;84.78
56671;BME280;42545;50.054;8.306;2023-08-21T08:35:38;100544.34;;;24.85;83.11
56671;BME280;42545;50.054;8.306;2023-08-21T08:38:06;100545.13;;;24.88;82.01
56671;BME280;42545;50.054;8.306;2023-08-21T08:40:34;100543.16;;;24.93;82.80
56671;BME280;42545;50.054;8.306;2023-08-21T08:43:03;100544.56;;;25.04;83.33
56671;BME280;42545;50.054;8.306;2023-08-21T08:45:31;100536.31;;;25.08;81.73
56671;BME280;42545;50.054;8.306;2023-08-21T08:47:59;100531.50;;;25.17;81.44
56671;BME280;42545;50.054;8.306;2023-08-21T08:50:31;100536.66;;;25.24;80.57
56671;BME280;42545;50.054;8.306;2023-08-21T08:52:58;100531.31;;;25.23;79.39
56671;BME280;42545;50.054;8.306;2023-08-21T08:55:25;100532.75;;;25.33;78.89
56671;BME280;42545;50.054;8.306;2023-08-21T08:57:53;100524.34;;;25.41;78.67
56671;BME280;42545;50.054;8.306;2023-08-21T09:00:20;100531.00;;;25.56;77.41
56671;BME280;42545;50.054;8.306;2023-08-21T09:02:47;100537.75;;;25.67;77.21
56671;BME280;42545;50.054;8.306;2023-08-21T09:05:14;100527.34;;;25.80;75.93
56671;BME280;42545;50.054;8.306;2023-08-21T09:07:43;100527.78;;;25.92;75.99
56671;BME280;42545;50.054;8.306;2023-08-21T09:10:13;100517.53;;;26.01;76.43
56671;BME280;42545;50.054;8.306;2023-08-21T09:12:40;100517.28;;;26.07;76.07
56671;BME280;42545;50.054;8.306;2023-08-21T09:15:07;100523.41;;;26.13;75.69
56671;BME280;42545;50.054;8.306;2023-08-21T09:17:34;100528.44;;;26.22;74.34
56671;BME280;42545;50.054;8.306;2023-08-21T09:20:03;100516.41;;;26.29;74.72
56671;BME280;42545;50.054;8.306;2023-08-21T09:22:30;100520.78;;;26.32;74.12
56671;BME280;42545;50.054;8.306;2023-08-21T09:25:03;100517.84;;;26.38;75.29
56671;BME280;42545;50.054;8.306;2023-08-21T09:27:32;100511.69;;;26.34;74.58
56671;BME280;42545;50.054;8.306;2023-08-21T09:29:59;100509.84;;;26.35;75.13
56671;BME280;42545;50.054;8.306;2023-08-21T09:32:25;100521.44;;;26.38;73.17
56671;BME280;42545;50.054;8.306;2023-08-21T09:34:52;100516.84;;;26.40;73.33
56671;BME280;42545;50.054;8.306;2023-08-21T09:40:57;100513.19;;;26.63;74.83
56671;BME280;42545;50.054;8.306;2023-08-21T09:43:24;100509.28;;;26.71;73.99
56671;BME280;42545;50.054;8.306;2023-08-21T09:45:54;100515.50;;;26.73;73.14
56671;BME280;42545;50.054;8.306;2023-08-21T09:48:22;100514.69;;;26.71;72.52
56671;BME280;42545;50.054;8.306;2023-08-21T09:50:50;100512.63;;;26.76;72.61
56671;BME280;42545;50.054;8.306;2023-08-21T09:53:17;100510.78;;;26.78;71.74
56671;BME280;42545;50.054;8.306;2023-08-21T09:55:44;100515.69;;;26.89;71.93
56671;BME280;42545;50.054;8.306;2023-08-21T09:58:13;100514.56;;;26.94;71.11
56671;BME280;42545;50.054;8.306;2023-08-21T10:00:40;100511.56;;;27.00;71.38
56671;BME280;42545;50.054;8.306;2023-08-21T10:03:08;100505.69;;;27.11;70.73
56671;BME280;42545;50.054;8.306;2023-08-21T10:05:37;100505.38;;;27.17;70.10
56671;BME280;42545;50.054;8.306;2023-08-21T10:08:05;100511.03;;;27.13;68.60
56671;BME280;42545;50.054;8.306;2023-08-21T10:17:18;100506.59;;;27.31;71.02
56671;BME280;42545;50.054;8.306;2023-08-21T10:19:50;100503.50;;;27.40;70.27
56671;BME280;42545;50.054;8.306;2023-08-21T10:22:36;100508.50;;;27.49;70.50
56671;BME280;42545;50.054;8.306;2023-08-21T10:25:04;100497.66;;;27.49;70.19
56671;BME280;42545;50.054;8.306;2023-08-21T10:27:40;100501.66;;;27.59;69.59
56671;BME280;42545;50.054;8.306;2023-08-21T10:30:13;100505.72;;;27.70;69.03
56671;BME280;42545;50.054;8.306;2023-08-21T10:32:46;100500.72;;;27.79;68.34
56671;BME280;42545;50.054;8.306;2023-08-21T10:35:18;100499.41;;;27.88;67.70
56671;BME280;42545;50.054;8.306;2023-08-21T10:38:08;100495.81;;;27.88;67.29
56671;BME280;42545;50.054;8.306;2023-08-21T10:40:35;100488.69;;;27.85;67.07
56671;BME280;42545;50.054;8.306;2023-08-21T10:43:02;100487.97;;;27.81;66.62
56671;BME280;42545;50.054;8.306;2023-08-21T10:45:31;100487.88;;;27.83;66.94
56671;BME280;42545;50.054;8.306;2023-08-21T10:47:59;100492.91;;;27.92;67.12
56671;BME280;42545;50.054;8.306;2023-08-21T10:50:27;100487.34;;;27.95;66.28
56671;BME280;42545;50.054;8.306;2023-08-21T10:52:54;100487.09;;;28.00;66.50
56671;BME280;42545;50.054;8.306;2023-08-21T10:55:20;100483.22;;;28.06;67.09
56671;BME280;42545;50.054;8.306;2023-08-21T10:57:48;100489.44;;;28.08;65.12
56671;BME280;42545;50.054;8.306;2023-08-21T11:00:16;100479.94;;;28.16;66.23
56671;BME280;42545;50.054;8.306;2023-08-21T11:02:45;100473.44;;;28.21;64.49
56671;BME280;42545;50.054;8.306;2023-08-21T11:05:14;100471.91;;;28.32;65.15
56671;BME280;42545;50.054;8.306;2023-08-21T11:07:43;100471.06;;;28.32;64.10
56671;BME280;42545;50.054;8.306;2023-08-21T11:10:12;100467.34;;;28.33;64.02
56671;BME280;42545;50.054;8.306;2023-08-21T11:12:48;100472.97;;;28.30;63.23
56671;BME280;42545;50.054;8.306;2023-08-21T11:15:16;100470.47;;;28.25;63.07
56671;BME280;42545;50.054;8.306;2023-08-21T11:17:50;100479.78;;;28.38;63.99
56671;BME280;42545;50.054;8.306;2023-08-21T11:20:19;100471.16;;;28.48;63.08
56671;BME280;42545;50.054;8.306;2023-08-21T11:22:46;100475.53;;;28.50;62.95
56671;BME280;42545;50.054;8.306;2023-08-21T11:25:14;100479.00;;;28.54;62.29
56671;BME280;42545;50.054;8.306;2023-08-21T11:27:41;100478.66;;;28.60;61.81
56671;BME280;42545;50.054;8.306;2023-08-21T11:30:11;100475.59;;;28.68;60.78
56671;BME280;42545;50.054;8.306;2023-08-21T11:32:38;100475.81;;;28.81;60.88
56671;BME280;42545;50.054;8.306;2023-08-21T11:35:05;100474.75;;;28.83;61.39
56671;BME280;42545;50.054;8.306;2023-08-21T11:37:33;100471.59;;;28.75;60.94
56671;BME280;42545;50.054;8.306;2023-08-21T11:40:07;100477.31;;;28.69;60.24
56671;BME280;42545;50.054;8.306;2023-08-21T11:42:34;100479.38;;;28.64;60.55
56671;BME280;42545;50.054;8.306;2023-08-21T11:45:02;100458.22;;;28.53;59.65
56671;BME280;42545;50.054;8.306;2023-08-21T11:47:31;100461.25;;;28.47;59.59
56671;BME280;42545;50.054;8.306;2023-08-21T11:50:02;100459.16;;;28.52;59.33
56671;BME280;42545;50.054;8.306;2023-08-21T11:52:29;100457.59;;;28.65;58.92
56671;BME280;42545;50.054;8.306;2023-08-21T11:54:58;100454.47;;;28.73;58.30
56671;BME280;42545;50.054;8.306;2023-08-21T11:57:25;100456.31;;;28.72;58.17
56671;BME280;42545;50.054;8.306;2023-08-21T11:59:54;100461.41;;;28.79;59.51
56671;BME280;42545;50.054;8.306;2023-08-21T12:02:23;100457.50;;;28.84;58.68
56671;BME280;42545;50.054;8.306;2023-08-21T12:04:53;100457.19;;;28.90;58.68
56671;BME280;42545;50.054;8.306;2023-08-21T12:07:21;100454.84;;;29.00;59.52
56671;BME280;42545;50.054;8.306;2023-08-21T12:09:48;100458.66;;;29.13;59.66
56671;BME280;42545;50.054;8.306;2023-08-21T12:12:16;100453.84;;;29.19;57.38
56671;BME280;42545;50.054;8.306;2023-08-21T12:14:43;100456.41;;;29.22;58.59
56671;BME280;42545;50.054;8.306;2023-08-21T12:17:09;100456.34;;;29.23;58.31
56671;BME280;42545;50.054;8.306;2023-08-21T12:19:36;100452.56;;;29.26;58.06
56671;BME280;42545;50.054;8.306;2023-08-21T12:22:03;100447.91;;;29.28;54.93
56671;BME280;42545;50.054;8.306;2023-08-21T12:24:30;100449.69;;;29.29;57.07
56671;BME280;42545;50.054;8.306;2023-08-21T12:26:57;100444.09;;;29.32;56.85
56671;BME280;42545;50.054;8.306;2023-08-21T12:29:25;100440.47;;;29.31;56.71
56671;BME280;42545;50.054;8.306;2023-08-21T12:31:51;100437.03;;;29.28;55.84
56671;BME280;42545;50.054;8.306;2023-08-21T12:34:18;100431.22;;;29.36;56.20
56671;BME280;42545;50.054;8.306;2023-08-21T12:36:45;100426.13;;;29.45;56.46
56671;BME280;42545;50.054;8.306;2023-08-21T12:39:11;100424.03;;;29.50;56.12
56671;BME280;42545;50.054;8.306;2023-08-21T12:41:39;100423.66;;;29.57;55.42
56671;BME280;42545;50.054;8.306;2023-08-21T12:44:05;100427.28;;;29.57;55.65
56671;BME280;42545;50.054;8.306;2023-08-21T12:46:35;100424.81;;;29.52;55.03
56671;BME280;42545;50.054;8.306;2023-08-21T12:49:02;100418.41;;;29.54;55.02
56671;BME280;42545;50.054;8.306;2023-08-21T12:51:29;100423.41;;;29.61;54.56
56671;BME280;42545;50.054;8.306;2023-08-21T12:53:56;100414.47;;;29.59;53.27
56671;BME280;42545;50.054;8.306;2023-08-21T12:56:23;100415.69;;;29.54;53.08
56671;BME280;42545;50.054;8.306;2023-08-21T12:58:51;100410.44;;;29.50;54.21